sensor_id;sensor_type;location;lat;lon;timestamp;pressure;altitude;pressure_sealevel;temperature;humidity
57801;BME280;43627;42.728;23.256;2023-02-23T00:01:57;94826.06;;;5.66;100.00
57801;BME280;43627;42.728;23.256;2023-02-23T00:04:35;94797.94;;;5.38;100.00
57801;BME280;43627;42.728;23.256;2023-02-23T00:07:03;94815.16;;;5.57;100.00
57801;BME280;43627;42.728;23.256;2023-02-23T00:09:29;94817.09;;;5.43;100.00
57801;BME280;43627;42.728;23.256;2023-02-23T00:12:03;94832.13;;;5.57;100.00
57801;BME280;43627;42.728;23.256;2023-02-23T00:14:33;94844.16;;;5.56;100.00
57801;BME280;43627;42.728;23.256;2023-02-23T00:17:00;94826.28;;;5.33;100.00
57801;BME280;43627;42.728;23.256;2023-02-23T00:19:27;94836.78;;;5.31;100.00
57801;BME280;43627;42.728;23.256;2023-02-23T00:21:54;94789.34;;;4.88;100.00
57801;BME280;43627;42.728;23.256;2023-02-23T00:24:24;94840.66;;;4.88;100.00
57801;BME280;43627;42.728;23.256;2023-02-23T00:26:52;94817.69;;;4.68;100.00
57801;BME280;43627;42.728;23.256;2023-02-23T00:29:21;94835.72;;;4.71;100.00
57801;BME280;43627;42.728;23.256;2023-02-23T00:31:50;94827.41;;;4.65;100.00
57801;BME280;43627;42.728;23.256;2023-02-23T00:34:19;94827.00;;;4.50;100.00
57801;BME280;43627;42.728;23.256;2023-02-23T00:36:53;94820.38;;;4.39;100.00
57801;BME280;43627;42.728;23.256;2023-02-23T00:39:21;94836.81;;;4.44;100.00
57801;BME280;43627;42.728;23.256;2023-02-23T00:41:49;94836.03;;;4.44;100.00
57801;BME280;43627;42.728;23.256;2023-02-23T00:44:18;94826.75;;;4.45;100.00
57801;BME280;43627;42.728;23.256;2023-02-23T00:46:46;94821.47;;;4.41;100.00
57801;BME280;43627;42.728;23.256;2023-02-23T00:49:18;94831.56;;;4.53;100.00
57801;BME280;43627;42.728;23.256;2023-02-23T00:51:45;94832.84;;;4.49;100.00
57801;BME280;43627;42.728;23.256;2023-02-23T00:54:13;94829.22;;;4.39;100.00
57801;BME280;43627;42.728;23.256;2023-02-23T00:56:40;94842.72;;;4.39;100.00
57801;BME280;43627;42.728;23.256;2023-02-23T00:59:07;94817.31;;;4.08;100.00
57801;BME280;43627;42.728;23.256;2023-02-23T01:01:34;94793.72;;;3.79;100.00
57801;BME280;43627;42.728;23.256;2023-02-23T01:04:03;94816.88;;;3.93;100.00
57801;BME280;43627;42.728;23.256;2023-02-23T01:06:30;94831.28;;;4.03;100.00
57801;BME280;43627;42.728;23.256;2023-02-23T01:08:57;94838.69;;;4.15;100.00
57801;BME280;43627;42.728;23.256;2023-02-23T01:11:27;94817.38;;;4.04;100.00
57801;BME280;43627;42.728;23.256;2023-02-23T01:13:58;94829.19;;;4.10;100.00
57801;BME280;43627;42.728;23.256;2023-02-23T01:16:28;94829.19;;;4.10;100.00
57801;BME280;43627;42.728;23.256;2023-02-23T01:18:57;94839.13;;;4.13;100.00
57801;BME280;43627;42.728;23.256;2023-02-23T01:21:30;94838.03;;;4.11;100.00
57801;BME280;43627;42.728;23.256;2023-02-23T01:23:58;94836.69;;;4.19;100.00
57801;BME280;43627;42.728;23.256;2023-02-23T01:26:33;94831.28;;;4.19;100.00
57801;BME280;43627;42.728;23.256;2023-02-23T01:29:23;94839.88;;;4.30;100.00
57801;BME280;43627;42.728;23.256;2023-02-23T01:31:48;94831.78;;;4.30;100.00
57801;BME280;43627;42.728;23.256;2023-02-23T01:34:19;94831.78;;;4.30;100.00
57801;BME280;43627;42.728;23.256;2023-02-23T01:36:47;94832.88;;;4.33;100.00
57801;BME280;43627;42.728;23.256;2023-02-23T01:39:17;94840.53;;;4.34;100.00
57801;BME280;43627;42.728;23.256;2023-02-23T01:41:44;94835.88;;;4.35;100.00
57801;BME280;43627;42.728;23.256;2023-02-23T01:46:45;94837.47;;;4.48;100.00
57801;BME280;43627;42.728;23.256;2023-02-23T01:49:17;94832.09;;;4.32;100.00
57801;BME280;43627;42.728;23.256;2023-02-23T01:51:50;94828.47;;;4.39;100.00
57801;BME280;43627;42.728;23.256;2023-02-23T01:54:20;94825.94;;;4.48;100.00
57801;BME280;43627;42.728;23.256;2023-02-23T01:56:50;94842.03;;;4.51;100.00
57801;BME280;43627;42.728;23.256;2023-02-23T01:59:42;94824.22;;;4.54;100.00
57801;BME280;43627;42.728;23.256;2023-02-23T02:02:09;94811.31;;;4.45;100.00
57801;BME280;43627;42.728;23.256;2023-02-23T02:04:38;94835.59;;;4.62;100.00
57801;BME280;43627;42.728;23.256;2023-02-23T02:07:22;94815.88;;;4.48;100.00
57801;BME280;43627;42.728;23.256;2023-02-23T02:09:52;94833.41;;;4.56;100.00
57801;BME280;43627;42.728;23.256;2023-02-23T02:12:54;94825.81;;;4.51;100.00
57801;BME280;43627;42.728;23.256;2023-02-23T02:15:23;94832.91;;;4.45;100.00
57801;BME280;43627;42.728;23.256;2023-02-23T02:18:34;94819.22;;;4.23;100.00
57801;BME280;43627;42.728;23.256;2023-02-23T02:30:01;94837.13;;;4.01;100.00
57801;BME280;43627;42.728;23.256;2023-02-23T02:38:45;94830.56;;;3.50;100.00
57801;BME280;43627;42.728;23.256;2023-02-23T02:41:17;94837.38;;;3.38;100.00
57801;BME280;43627;42.728;23.256;2023-02-23T02:44:05;94830.91;;;3.35;100.00
57801;BME280;43627;42.728;23.256;2023-02-23T02:46:37;94822.63;;;3.26;100.00
57801;BME280;43627;42.728;23.256;2023-02-23T02:49:26;94834.34;;;3.36;100.00
57801;BME280;43627;42.728;23.256;2023-02-23T02:52:15;94835.25;;;3.29;100.00
57801;BME280;43627;42.728;23.256;2023-02-23T02:54:50;94832.56;;;3.29;100.00
57801;BME280;43627;42.728;23.256;2023-02-23T02:57:23;94832.25;;;3.43;100.00
57801;BME280;43627;42.728;23.256;2023-02-23T02:59:50;94830.03;;;3.38;100.00
57801;BME280;43627;42.728;23.256;2023-02-23T03:02:38;94821.00;;;3.29;100.00
57801;BME280;43627;42.728;23.256;2023-02-23T03:09:02;94826.50;;;3.25;100.00
57801;BME280;43627;42.728;23.256;2023-02-23T03:15:24;94826.47;;;2.89;100.00
57801;BME280;43627;42.728;23.256;2023-02-23T03:18:47;94824.19;;;2.88;100.00
57801;BME280;43627;42.728;23.256;2023-02-23T03:21:36;94817.00;;;2.61;100.00
57801;BME280;43627;42.728;23.256;2023-02-23T03:24:37;94830.31;;;2.68;100.00
57801;BME280;43627;42.728;23.256;2023-02-23T03:30:58;94838.63;;;2.77;100.00
57801;BME280;43627;42.728;23.256;2023-02-23T03:33:57;94838.88;;;2.83;100.00
57801;BME280;43627;42.728;23.256;2023-02-23T03:36:47;94846.34;;;2.95;100.00
57801;BME280;43627;42.728;23.256;2023-02-23T03:39:40;94845.97;;;2.93;100.00
57801;BME280;43627;42.728;23.256;2023-02-23T03:42:30;94849.50;;;2.90;100.00
57801;BME280;43627;42.728;23.256;2023-02-23T03:45:19;94854.81;;;2.94;100.00
57801;BME280;43627;42.728;23.256;2023-02-23T03:48:08;94859.31;;;3.00;100.00
57801;BME280;43627;42.728;23.256;2023-02-23T03:50:58;94863.06;;;2.86;100.00
57801;BME280;43627;42.728;23.256;2023-02-23T03:56:50;94861.78;;;2.71;100.00
57801;BME280;43627;42.728;23.256;2023-02-23T03:59:42;94844.75;;;2.58;100.00
57801;BME280;43627;42.728;23.256;2023-02-23T04:02:33;94839.56;;;2.47;100.00
57801;BME280;43627;42.728;23.256;2023-02-23T04:05:21;94845.31;;;2.69;100.00
57801;BME280;43627;42.728;23.256;2023-02-23T04:08:11;94846.75;;;2.74;100.00
57801;BME280;43627;42.728;23.256;2023-02-23T04:11:06;94848.84;;;2.86;100.00
57801;BME280;43627;42.728;23.256;2023-02-23T04:13:59;94860.63;;;2.92;100.00
57801;BME280;43627;42.728;23.256;2023-02-23T04:16:28;94856.50;;;2.88;100.00
57801;BME280;43627;42.728;23.256;2023-02-23T04:18:56;94860.72;;;2.89;100.00
57801;BME280;43627;42.728;23.256;2023-02-23T04:21:23;94861.81;;;2.91;100.00
57801;BME280;43627;42.728;23.256;2023-02-23T04:23:50;94853.09;;;2.83;100.00
57801;BME280;43627;42.728;23.256;2023-02-23T04:26:16;94842.63;;;2.89;100.00
57801;BME280;43627;42.728;23.256;2023-02-23T04:28:43;94831.84;;;2.89;100.00
57801;BME280;43627;42.728;23.256;2023-02-23T04:31:12;94827.75;;;2.81;100.00
57801;BME280;43627;42.728;23.256;2023-02-23T04:33:39;94847.38;;;3.01;100.00
57801;BME280;43627;42.728;23.256;2023-02-23T04:36:06;94848.53;;;3.00;100.00
57801;BME280;43627;42.728;23.256;2023-02-23T04:38:33;94840.34;;;2.88;100.00
57801;BME280;43627;42.728;23.256;2023-02-23T04:40:59;94861.78;;;3.11;100.00
57801;BME280;43627;42.728;23.256;2023-02-23T04:43:26;94861.97;;;3.04;100.00
57801;BME280;43627;42.728;23.256;2023-02-23T04:45:53;94864.28;;;3.02;100.00
57801;BME280;43627;42.728;23.256;2023-02-23T04:48:19;94854.69;;;3.01;100.00
57801;BME280;43627;42.728;23.256;2023-02-23T04:50:46;94865.47;;;3.01;100.00
57801;BME280;43627;42.728;23.256;2023-02-23T04:53:13;94840.81;;;2.82;100.00
57801;BME280;43627;42.728;23.256;2023-02-23T04:55:39;94847.38;;;2.81;100.00
57801;BME280;43627;42.728;23.256;2023-02-23T04:58:07;94841.03;;;2.72;100.00
57801;BME280;43627;42.728;23.256;2023-02-23T05:00:39;94841.91;;;2.65;100.00
57801;BME280;43627;42.728;23.256;2023-02-23T05:03:06;94824.09;;;2.51;100.00
57801;BME280;43627;42.728;23.256;2023-02-23T05:05:33;94843.91;;;2.61;100.00
57801;BME280;43627;42.728;23.256;2023-02-23T05:07:59;94842.19;;;2.51;100.00
57801;BME280;43627;42.728;23.256;2023-02-23T05:10:26;94865.16;;;2.55;100.00
57801;BME280;43627;42.728;23.256;2023-02-23T05:12:53;94861.13;;;2.44;100.00
57801;BME280;43627;42.728;23.256;2023-02-23T05:15:20;94868.22;;;2.34;100.00
57801;BME280;43627;42.728;23.256;2023-02-23T05:17:47;94830.25;;;2.09;100.00
57801;BME280;43627;42.728;23.256;2023-02-23T05:20:14;94858.00;;;2.25;100.00
57801;BME280;43627;42.728;23.256;2023-02-23T05:22:40;94860.81;;;2.18;100.00
57801;BME280;43627;42.728;23.256;2023-02-23T05:25:08;94861.56;;;2.19;100.00
57801;BME280;43627;42.728;23.256;2023-02-23T05:27:36;94876.72;;;2.33;100.00
57801;BME280;43627;42.728;23.256;2023-02-23T05:30:04;94874.72;;;2.37;100.00
57801;BME280;43627;42.728;23.256;2023-02-23T05:32:32;94883.72;;;2.50;100.00
57801;BME280;43627;42.728;23.256;2023-02-23T05:35:00;94885.34;;;2.67;100.00
57801;BME280;43627;42.728;23.256;2023-02-23T05:37:27;94876.00;;;2.72;100.00
57801;BME280;43627;42.728;23.256;2023-02-23T05:39:54;94882.25;;;2.89;100.00
57801;BME280;43627;42.728;23.256;2023-02-23T05:42:21;94888.75;;;3.11;100.00
57801;BME280;43627;42.728;23.256;2023-02-23T05:44:47;94891.72;;;3.17;100.00
57801;BME280;43627;42.728;23.256;2023-02-23T05:47:14;94895.56;;;3.35;100.00
57801;BME280;43627;42.728;23.256;2023-02-23T05:49:40;94894.44;;;3.53;100.00
57801;BME280;43627;42.728;23.256;2023-02-23T05:52:08;94910.53;;;3.92;100.00
57801;BME280;43627;42.728;23.256;2023-02-23T05:54:34;94880.00;;;3.95;100.00
57801;BME280;43627;42.728;23.256;2023-02-23T05:57:01;94899.91;;;4.50;100.00
57801;BME280;43627;42.728;23.256;2023-02-23T05:59:27;94917.78;;;5.06;100.00
57801;BME280;43627;42.728;23.256;2023-02-23T06:01:54;94914.69;;;5.62;100.00
57801;BME280;43627;42.728;23.256;2023-02-23T06:04:21;94920.19;;;6.25;100.00
57801;BME280;43627;42.728;23.256;2023-02-23T06:06:48;94892.72;;;6.49;98.05
57801;BME280;43627;42.728;23.256;2023-02-23T06:09:15;94924.41;;;7.08;90.78
57801;BME280;43627;42.728;23.256;2023-02-23T06:11:42;94912.84;;;7.30;86.01
57801;BME280;43627;42.728;23.256;2023-02-23T06:14:09;94895.81;;;7.51;80.92
57801;BME280;43627;42.728;23.256;2023-02-23T06:16:36;94909.38;;;7.82;78.01
57801;BME280;43627;42.728;23.256;2023-02-23T06:19:03;94928.28;;;7.95;76.84
57801;BME280;43627;42.728;23.256;2023-02-23T06:21:30;94925.53;;;8.17;76.08
57801;BME280;43627;42.728;23.256;2023-02-23T06:23:56;94930.81;;;8.20;73.76
57801;BME280;43627;42.728;23.256;2023-02-23T06:26:26;94910.63;;;8.30;73.97
57801;BME280;43627;42.728;23.256;2023-02-23T06:28:52;94925.22;;;8.46;72.67
57801;BME280;43627;42.728;23.256;2023-02-23T06:31:19;94939.44;;;8.59;71.69
57801;BME280;43627;42.728;23.256;2023-02-23T06:33:47;94945.53;;;8.72;70.94
57801;BME280;43627;42.728;23.256;2023-02-23T06:36:14;94916.94;;;8.58;71.98
57801;BME280;43627;42.728;23.256;2023-02-23T06:38:40;94950.84;;;8.94;72.50
57801;BME280;43627;42.728;23.256;2023-02-23T06:41:09;94940.84;;;8.82;70.86
57801;BME280;43627;42.728;23.256;2023-02-23T06:43:36;94949.75;;;8.82;75.85
57801;BME280;43627;42.728;23.256;2023-02-23T06:46:02;94947.81;;;8.92;73.67
57801;BME280;43627;42.728;23.256;2023-02-23T06:48:29;94952.47;;;8.82;71.43
57801;BME280;43627;42.728;23.256;2023-02-23T06:50:58;94939.59;;;8.65;74.07
57801;BME280;43627;42.728;23.256;2023-02-23T06:53:25;94939.56;;;8.46;73.70
57801;BME280;43627;42.728;23.256;2023-02-23T06:55:52;94923.13;;;8.19;76.70
57801;BME280;43627;42.728;23.256;2023-02-23T06:58:18;94946.41;;;8.29;78.91
57801;BME280;43627;42.728;23.256;2023-02-23T07:00:45;94941.78;;;8.08;77.74
57801;BME280;43627;42.728;23.256;2023-02-23T07:03:12;94935.56;;;7.76;82.91
57801;BME280;43627;42.728;23.256;2023-02-23T07:05:38;94949.19;;;8.07;85.56
57801;BME280;43627;42.728;23.256;2023-02-23T07:08:06;94950.78;;;8.26;82.95
57801;BME280;43627;42.728;23.256;2023-02-23T07:10:33;94907.00;;;8.24;77.38
57801;BME280;43627;42.728;23.256;2023-02-23T07:13:00;94943.38;;;8.67;74.29
57801;BME280;43627;42.728;23.256;2023-02-23T07:15:27;94949.53;;;8.58;75.81
57801;BME280;43627;42.728;23.256;2023-02-23T07:17:53;94956.09;;;8.79;77.04
57801;BME280;43627;42.728;23.256;2023-02-23T07:20:20;94942.53;;;9.25;71.02
57801;BME280;43627;42.728;23.256;2023-02-23T07:22:47;94932.53;;;8.85;71.51
57801;BME280;43627;42.728;23.256;2023-02-23T07:25:14;94938.31;;;9.06;74.50
57801;BME280;43627;42.728;23.256;2023-02-23T07:27:40;94952.03;;;9.66;71.70
57801;BME280;43627;42.728;23.256;2023-02-23T07:30:08;94933.75;;;9.76;68.95
57801;BME280;43627;42.728;23.256;2023-02-23T07:32:35;94934.31;;;9.80;66.49
57801;BME280;43627;42.728;23.256;2023-02-23T07:35:03;94937.47;;;9.97;65.67
57801;BME280;43627;42.728;23.256;2023-02-23T07:37:30;94939.59;;;9.84;66.59
57801;BME280;43627;42.728;23.256;2023-02-23T07:39:56;94942.03;;;9.82;67.28
57801;BME280;43627;42.728;23.256;2023-02-23T07:42:26;94941.78;;;9.52;66.86
57801;BME280;43627;42.728;23.256;2023-02-23T07:44:52;94930.78;;;9.19;68.82
57801;BME280;43627;42.728;23.256;2023-02-23T07:47:19;94928.94;;;8.98;70.61
57801;BME280;43627;42.728;23.256;2023-02-23T07:49:46;94936.94;;;8.83;71.60
57801;BME280;43627;42.728;23.256;2023-02-23T07:52:16;94945.09;;;8.83;74.58
57801;BME280;43627;42.728;23.256;2023-02-23T07:54:43;94919.38;;;8.66;73.72
57801;BME280;43627;42.728;23.256;2023-02-23T07:57:10;94923.47;;;8.79;75.25
57801;BME280;43627;42.728;23.256;2023-02-23T07:59:37;94926.31;;;8.67;76.69
57801;BME280;43627;42.728;23.256;2023-02-23T08:02:04;94924.53;;;8.82;74.55
57801;BME280;43627;42.728;23.256;2023-02-23T08:04:31;94896.16;;;8.83;73.50
57801;BME280;43627;42.728;23.256;2023-02-23T08:06:58;94920.63;;;8.83;72.33
57801;BME280;43627;42.728;23.256;2023-02-23T08:09:24;94928.63;;;9.05;71.64
57801;BME280;43627;42.728;23.256;2023-02-23T08:11:51;94900.53;;;8.99;72.18
57801;BME280;43627;42.728;23.256;2023-02-23T08:14:18;94928.03;;;9.28;68.96
57801;BME280;43627;42.728;23.256;2023-02-23T08:16:49;94913.06;;;9.42;67.17
57801;BME280;43627;42.728;23.256;2023-02-23T08:19:17;94900.31;;;9.66;66.01
57801;BME280;43627;42.728;23.256;2023-02-23T08:21:44;94898.34;;;9.76;64.76
57801;BME280;43627;42.728;23.256;2023-02-23T08:24:10;94914.97;;;9.78;65.99
57801;BME280;43627;42.728;23.256;2023-02-23T08:26:37;94927.22;;;9.83;64.81
57801;BME280;43627;42.728;23.256;2023-02-23T08:29:04;94926.59;;;9.88;65.12
57801;BME280;43627;42.728;23.256;2023-02-23T08:31:30;94910.59;;;9.71;65.86
57801;BME280;43627;42.728;23.256;2023-02-23T08:33:59;94931.09;;;10.00;63.56
57801;BME280;43627;42.728;23.256;2023-02-23T08:36:26;94912.94;;;10.06;62.51
57801;BME280;43627;42.728;23.256;2023-02-23T08:38:53;94911.44;;;9.96;62.28
57801;BME280;43627;42.728;23.256;2023-02-23T08:41:20;94922.91;;;10.09;61.50
57801;BME280;43627;42.728;23.256;2023-02-23T08:43:47;94924.09;;;10.26;61.28
57801;BME280;43627;42.728;23.256;2023-02-23T08:46:14;94923.81;;;10.48;60.59
57801;BME280;43627;42.728;23.256;2023-02-23T08:48:44;94910.97;;;10.73;59.11
57801;BME280;43627;42.728;23.256;2023-02-23T08:51:10;94914.78;;;10.66;59.23
57801;BME280;43627;42.728;23.256;2023-02-23T08:53:37;94919.50;;;10.66;59.74
57801;BME280;43627;42.728;23.256;2023-02-23T08:56:05;94908.25;;;10.73;60.00
57801;BME280;43627;42.728;23.256;2023-02-23T08:58:34;94918.88;;;10.95;58.96
57801;BME280;43627;42.728;23.256;2023-02-23T09:01:02;94909.38;;;11.05;56.80
57801;BME280;43627;42.728;23.256;2023-02-23T09:03:31;94899.69;;;11.42;56.24
57801;BME280;43627;42.728;23.256;2023-02-23T09:06:08;94922.78;;;11.56;54.84
57801;BME280;43627;42.728;23.256;2023-02-23T09:08:35;94902.44;;;11.57;55.98
57801;BME280;43627;42.728;23.256;2023-02-23T09:11:02;94912.25;;;11.93;54.25
57801;BME280;43627;42.728;23.256;2023-02-23T09:13:28;94899.34;;;12.09;52.81
57801;BME280;43627;42.728;23.256;2023-02-23T09:15:55;94903.78;;;12.06;52.23
57801;BME280;43627;42.728;23.256;2023-02-23T09:18:22;94916.50;;;12.24;52.27
57801;BME280;43627;42.728;23.256;2023-02-23T09:20:50;94906.56;;;12.41;51.88
57801;BME280;43627;42.728;23.256;2023-02-23T09:23:17;94871.16;;;12.32;50.37
57801;BME280;43627;42.728;23.256;2023-02-23T09:25:45;94912.00;;;12.56;50.58
57801;BME280;43627;42.728;23.256;2023-02-23T09:28:14;94899.28;;;12.53;50.37
57801;BME280;43627;42.728;23.256;2023-02-23T09:30:42;94852.63;;;12.07;50.10
57801;BME280;43627;42.728;23.256;2023-02-23T09:33:10;94913.97;;;12.55;50.22
57801;BME280;43627;42.728;23.256;2023-02-23T09:35:37;94907.28;;;12.56;49.75
57801;BME280;43627;42.728;23.256;2023-02-23T09:38:06;94905.53;;;12.74;49.42
57801;BME280;43627;42.728;23.256;2023-02-23T09:40:44;94900.06;;;13.14;48.61
57801;BME280;43627;42.728;23.256;2023-02-23T09:43:18;94909.72;;;13.10;48.41
57801;BME280;43627;42.728;23.256;2023-02-23T09:46:01;94879.13;;;13.11;48.08
57801;BME280;43627;42.728;23.256;2023-02-23T09:48:29;94876.31;;;13.47;47.47
57801;BME280;43627;42.728;23.256;2023-02-23T09:50:57;94862.91;;;13.54;46.66
57801;BME280;43627;42.728;23.256;2023-02-23T09:53:39;94851.84;;;13.43;46.38
57801;BME280;43627;42.728;23.256;2023-02-23T09:56:30;94905.19;;;13.73;46.80
57801;BME280;43627;42.728;23.256;2023-02-23T09:59:03;94899.88;;;13.90;45.97
57801;BME280;43627;42.728;23.256;2023-02-23T10:04:38;94903.41;;;14.28;45.70
57801;BME280;43627;42.728;23.256;2023-02-23T10:07:14;94891.78;;;14.39;44.81
57801;BME280;43627;42.728;23.256;2023-02-23T10:17:47;94888.13;;;14.47;44.92
57801;BME280;43627;42.728;23.256;2023-02-23T10:20:24;94889.22;;;14.61;44.10
57801;BME280;43627;42.728;23.256;2023-02-23T10:22:56;94868.91;;;14.47;44.48
57801;BME280;43627;42.728;23.256;2023-02-23T10:25:30;94777.06;;;14.32;43.68
57801;BME280;43627;42.728;23.256;2023-02-23T10:27:57;94859.97;;;15.06;42.80
57801;BME280;43627;42.728;23.256;2023-02-23T10:30:28;94816.97;;;14.81;42.45
57801;BME280;43627;42.728;23.256;2023-02-23T10:33:22;94864.81;;;15.28;42.31
57801;BME280;43627;42.728;23.256;2023-02-23T10:35:57;94878.66;;;15.67;41.79
57801;BME280;43627;42.728;23.256;2023-02-23T10:38:39;94864.94;;;16.01;40.99
57801;BME280;43627;42.728;23.256;2023-02-23T10:41:06;94795.72;;;15.75;40.63
57801;BME280;43627;42.728;23.256;2023-02-23T10:43:34;94853.91;;;16.46;40.29
57801;BME280;43627;42.728;23.256;2023-02-23T10:46:01;94844.88;;;16.62;39.46
57801;BME280;43627;42.728;23.256;2023-02-23T10:48:40;94841.44;;;16.06;40.61
57801;BME280;43627;42.728;23.256;2023-02-23T10:51:23;94835.97;;;15.94;40.82
57801;BME280;43627;42.728;23.256;2023-02-23T10:53:51;94842.91;;;16.51;39.88
57801;BME280;43627;42.728;23.256;2023-02-23T10:56:19;94826.91;;;16.50;39.65
57801;BME280;43627;42.728;23.256;2023-02-23T10:58:56;94832.88;;;16.48;39.47
57801;BME280;43627;42.728;23.256;2023-02-23T11:01:41;94821.41;;;16.33;39.63
57801;BME280;43627;42.728;23.256;2023-02-23T11:04:29;94792.44;;;15.98;40.05
57801;BME280;43627;42.728;23.256;2023-02-23T11:07:14;94819.63;;;16.52;39.60
57801;BME280;43627;42.728;23.256;2023-02-23T11:09:42;94767.16;;;16.22;39.31
57801;BME280;43627;42.728;23.256;2023-02-23T11:14:51;94811.16;;;16.39;39.50
57801;BME280;43627;42.728;23.256;2023-02-23T11:17:36;94802.72;;;15.92;40.51
57801;BME280;43627;42.728;23.256;2023-02-23T11:20:24;94802.44;;;16.13;40.13
57801;BME280;43627;42.728;23.256;2023-02-23T11:22:54;94802.97;;;15.66;40.84
57801;BME280;43627;42.728;23.256;2023-02-23T11:25:30;94802.16;;;15.49;40.75
57801;BME280;43627;42.728;23.256;2023-02-23T11:27:58;94789.16;;;15.50;40.89
57801;BME280;43627;42.728;23.256;2023-02-23T11:30:35;94803.94;;;15.91;40.60
57801;BME280;43627;42.728;23.256;2023-02-23T11:33:04;94786.97;;;15.93;40.36
57801;BME280;43627;42.728;23.256;2023-02-23T11:35:37;94776.44;;;16.08;40.33
57801;BME280;43627;42.728;23.256;2023-02-23T11:38:24;94791.63;;;16.43;39.67
57801;BME280;43627;42.728;23.256;2023-02-23T11:41:03;94744.94;;;15.98;39.49
57801;BME280;43627;42.728;23.256;2023-02-23T11:43:31;94764.66;;;16.19;39.10
57801;BME280;43627;42.728;23.256;2023-02-23T11:45:59;94788.06;;;16.65;38.96
57801;BME280;43627;42.728;23.256;2023-02-23T11:48:31;94779.47;;;16.85;38.66
57801;BME280;43627;42.728;23.256;2023-02-23T11:50:59;94759.03;;;16.64;38.76
57801;BME280;43627;42.728;23.256;2023-02-23T11:53:43;94779.34;;;16.49;39.25
57801;BME280;43627;42.728;23.256;2023-02-23T11:56:10;94752.09;;;16.46;39.47
57801;BME280;43627;42.728;23.256;2023-02-23T11:58:49;94775.00;;;16.82;38.65
57801;BME280;43627;42.728;23.256;2023-02-23T12:01:38;94761.91;;;16.30;39.63
57801;BME280;43627;42.728;23.256;2023-02-23T12:06:49;94770.59;;;16.45;39.61
57801;BME280;43627;42.728;23.256;2023-02-23T12:09:21;94768.03;;;16.64;39.20
57801;BME280;43627;42.728;23.256;2023-02-23T12:11:58;94760.53;;;16.65;38.33
57801;BME280;43627;42.728;23.256;2023-02-23T12:14:39;94720.78;;;16.60;38.20
57801;BME280;43627;42.728;23.256;2023-02-23T12:17:21;94754.34;;;17.05;37.94
57801;BME280;43627;42.728;23.256;2023-02-23T12:19:58;94736.09;;;17.02;37.71
57801;BME280;43627;42.728;23.256;2023-02-23T12:22:50;94752.25;;;17.23;37.44
57801;BME280;43627;42.728;23.256;2023-02-23T12:25:43;94693.31;;;16.38;37.50
57801;BME280;43627;42.728;23.256;2023-02-23T12:28:30;94775.06;;;16.71;37.90
57801;BME280;43627;42.728;23.256;2023-02-23T12:31:01;94746.78;;;16.70;38.21
57801;BME280;43627;42.728;23.256;2023-02-23T12:33:36;94748.22;;;16.77;38.33
57801;BME280;43627;42.728;23.256;2023-02-23T12:36:36;94735.72;;;16.81;38.21
57801;BME280;43627;42.728;23.256;2023-02-23T12:39:25;94752.78;;;16.63;38.34
57801;BME280;43627;42.728;23.256;2023-02-23T12:42:19;94754.00;;;16.73;38.15
57801;BME280;43627;42.728;23.256;2023-02-23T12:44:54;94755.81;;;16.60;38.10
57801;BME280;43627;42.728;23.256;2023-02-23T12:47:45;94683.53;;;15.73;38.80
57801;BME280;43627;42.728;23.256;2023-02-23T12:52:54;94727.59;;;16.37;38.79
57801;BME280;43627;42.728;23.256;2023-02-23T13:04:22;94737.44;;;16.84;37.73
57801;BME280;43627;42.728;23.256;2023-02-23T13:09:44;94724.84;;;16.37;38.07
57801;BME280;43627;42.728;23.256;2023-02-23T13:16:12;94746.41;;;16.21;37.74
57801;BME280;43627;42.728;23.256;2023-02-23T13:18:31;94739.66;;;16.17;38.16
57801;BME280;43627;42.728;23.256;2023-02-23T13:21:25;94725.91;;;16.22;38.51
57801;BME280;43627;42.728;23.256;2023-02-23T13:26:29;94734.66;;;16.15;39.21
57801;BME280;43627;42.728;23.256;2023-02-23T13:31:37;94677.25;;;15.73;38.67
57801;BME280;43627;42.728;23.256;2023-02-23T13:34:20;94727.91;;;16.22;38.88
57801;BME280;43627;42.728;23.256;2023-02-23T13:36:49;94729.44;;;16.12;38.83
57801;BME280;43627;42.728;23.256;2023-02-23T13:53:00;94737.19;;;16.13;39.28
57801;BME280;43627;42.728;23.256;2023-02-23T13:58:15;94697.19;;;16.01;38.60
57801;BME280;43627;42.728;23.256;2023-02-23T14:00:42;94726.19;;;16.08;39.13
57801;BME280;43627;42.728;23.256;2023-02-23T14:03:24;94740.44;;;16.12;39.32
57801;BME280;43627;42.728;23.256;2023-02-23T14:05:56;94672.03;;;15.75;39.25
57801;BME280;43627;42.728;23.256;2023-02-23T14:08:36;94727.69;;;16.09;39.37
57801;BME280;43627;42.728;23.256;2023-02-23T14:11:04;94731.91;;;16.10;39.30
57801;BME280;43627;42.728;23.256;2023-02-23T14:13:34;94716.69;;;15.97;39.33
57801;BME280;43627;42.728;23.256;2023-02-23T14:16:22;94730.94;;;16.07;39.50
57801;BME280;43627;42.728;23.256;2023-02-23T14:21:22;94730.66;;;16.11;39.27
57801;BME280;43627;42.728;23.256;2023-02-23T14:24:12;94737.75;;;15.84;40.20
57801;BME280;43627;42.728;23.256;2023-02-23T14:26:45;94716.47;;;15.28;43.54
57801;BME280;43627;42.728;23.256;2023-02-23T14:29:41;94735.16;;;15.02;45.02
57801;BME280;43627;42.728;23.256;2023-02-23T14:38:02;94749.69;;;14.00;48.53
57801;BME280;43627;42.728;23.256;2023-02-23T14:40:30;94748.38;;;13.90;48.94
57801;BME280;43627;42.728;23.256;2023-02-23T14:43:00;94739.75;;;13.65;49.70
57801;BME280;43627;42.728;23.256;2023-02-23T14:45:32;94690.13;;;13.26;49.87
57801;BME280;43627;42.728;23.256;2023-02-23T14:48:10;94758.38;;;13.56;50.57
57801;BME280;43627;42.728;23.256;2023-02-23T14:50:42;94734.53;;;13.36;51.35
57801;BME280;43627;42.728;23.256;2023-02-23T14:53:21;94728.50;;;13.06;52.11
57801;BME280;43627;42.728;23.256;2023-02-23T14:55:49;94738.22;;;13.07;52.69
57801;BME280;43627;42.728;23.256;2023-02-23T14:58:30;94724.25;;;12.99;53.06